createdAt,value
2018-12-27T15:56:54.082Z,17.13
2018-12-27T16:01:57.513Z,15.80
2018-12-27T16:07:01.895Z,23.27
2018-12-27T16:12:05.673Z,18.47
2018-12-27T16:17:09.122Z,17.47
2018-12-27T16:22:12.809Z,17.50
2018-12-27T16:27:16.243Z,16.87
2018-12-27T16:32:19.687Z,15.00
2018-12-27T16:37:23.121Z,16.77
2018-12-27T16:42:26.564Z,16.60
2018-12-27T16:47:29.994Z,17.87
2018-12-27T16:52:33.503Z,27.57
2018-12-27T16:57:36.959Z,20.37
2018-12-27T17:02:40.408Z,21.93
2018-12-27T17:07:43.838Z,20.77
2018-12-27T17:12:47.287Z,20.43
2018-12-27T17:17:50.726Z,22.73
2018-12-27T17:22:54.183Z,22.50
2018-12-27T17:27:57.606Z,27.73
2018-12-27T17:33:01.043Z,33.13
2018-12-27T17:38:04.513Z,35.33
2018-12-27T17:43:07.956Z,36.13
2018-12-27T17:48:11.413Z,26.87
2018-12-27T17:53:14.853Z,28.43
2018-12-27T17:58:18.296Z,28.60
2018-12-27T18:03:21.817Z,33.37
2018-12-27T18:08:25.259Z,31.27
2018-12-27T18:13:28.690Z,28.30
2018-12-27T18:18:32.132Z,29.80
2018-12-27T18:23:35.571Z,29.73
2018-12-27T18:28:39.017Z,30.33
2018-12-27T18:33:42.458Z,29.80
2018-12-27T18:38:45.924Z,28.50
2018-12-27T18:43:49.353Z,24.80
2018-12-27T18:48:52.798Z,22.83
2018-12-27T18:53:56.284Z,22.70
2018-12-27T18:58:59.729Z,23.63
2018-12-27T19:04:03.158Z,19.93
2018-12-27T19:09:07.471Z,18.47
2018-12-27T19:14:10.915Z,19.57
2018-12-27T19:19:14.356Z,20.10
2018-12-27T19:24:17.803Z,20.80
2018-12-27T19:29:21.234Z,22.07
2018-12-27T19:34:24.667Z,19.63
2018-12-27T19:39:28.118Z,20.20
2018-12-27T19:44:31.553Z,20.90
2018-12-27T19:49:34.980Z,18.60
2018-12-27T19:54:38.459Z,18.17
2018-12-27T19:59:41.898Z,20.30
2018-12-27T20:04:45.328Z,18.90
2018-12-27T20:09:48.782Z,20.70
2018-12-27T20:14:52.230Z,21.03
2018-12-27T20:19:55.665Z,18.30
2018-12-27T20:24:59.176Z,21.00
2018-12-27T20:30:02.618Z,18.13
2018-12-27T20:35:06.059Z,19.37
2018-12-27T20:40:09.494Z,18.57
2018-12-27T20:45:12.941Z,17.97
2018-12-27T20:50:16.476Z,19.87
2018-12-27T20:55:19.919Z,21.63
2018-12-27T21:00:23.481Z,20.43
2018-12-27T21:05:26.971Z,22.93
2018-12-27T21:10:30.469Z,25.07
2018-12-27T21:15:33.889Z,23.80
2018-12-27T21:20:37.707Z,23.57
2018-12-27T21:25:41.652Z,25.17
2018-12-27T21:30:45.109Z,24.77
2018-12-27T21:35:48.550Z,23.13
2018-12-27T21:40:52.099Z,24.93
2018-12-27T21:45:55.538Z,24.17
2018-12-27T21:50:58.985Z,25.60
2018-12-27T21:56:02.432Z,23.37
2018-12-27T22:01:05.880Z,24.37
2018-12-27T22:06:09.320Z,22.97
2018-12-27T22:11:12.802Z,25.00
2018-12-27T22:16:16.652Z,28.43
2018-12-27T22:21:20.109Z,32.80
2018-12-27T22:26:23.598Z,25.83
2018-12-27T22:31:27.084Z,26.90
2018-12-27T22:36:30.532Z,28.40
2018-12-27T22:41:37.463Z,25.30
2018-12-27T22:46:40.904Z,25.80
2018-12-27T22:51:44.343Z,26.83
2018-12-27T22:56:47.775Z,24.17
2018-12-27T23:01:51.288Z,24.23
2018-12-27T23:06:54.712Z,26.57
2018-12-27T23:11:58.140Z,23.20
2018-12-27T23:17:01.567Z,24.67
2018-12-27T23:22:05.014Z,26.83
2018-12-27T23:27:08.446Z,24.17
2018-12-27T23:32:11.898Z,26.33
2018-12-27T23:37:15.350Z,28.03
2018-12-27T23:42:18.783Z,27.57
2018-12-27T23:47:22.227Z,26.13
2018-12-27T23:52:25.664Z,25.43
2018-12-27T23:57:29.091Z,24.70
